Hauptseite
METAR-TAF:

METAR-TAF

Flughäfen :

Funchal, Madeira, Portugal

Flughafen Madeira

Breite: 32-41-52N, Länge: 016-46-28W, Höhe: 59 m

Beobachtung

Neuester Wetterbericht von vor 33 Minuten, um 11:30 UTC
Wind 14 kt aus Nord/Nordost
Temperatur 24°C
Luftfeuchtigkeit 65%
Luftdruck 1021 hPa
Sichtweite 10 km oder mehr
Aufgelockert bewölkt in der Höhe von 1500 ft

METAR: LPMA 221130Z 03014KT 9999 SCT015 24/17 Q1021

Zeit: 13:03 (12:03 UTC)

Prognose

Neuester Wetterbericht von vor 1 Stunde und 3 Minuten, um 11:00 UTC
Gültige Prognose vom 22 um 12 UTC bis 23 um 12 UTC
Wind 15 kt aus Nord/Nordost
Sichtweite 10 km oder mehr
Aufgelockert bewölkt in der Höhe von 1500 ft

TAF: LPMA 221100Z 2212/2312 03015KT 9999 SCT015

Wetterbeobachtungen und Prognosen von mehr als 4000 Flughäfen (METAR und TAF Bericht).

Die verfügbaren Stationen werden durch gelbe und rote Markierungen auf der Karte dargestellt.

Führen Sie die Maus auf sie, um den Namen der Station zu sehen.

Darauf klicken, um die Beobachtung von Wetterbeobachtungen und Prognosen zu sehen.

Um die Karte zu ändern : klicken Sie auf den grünen Tasten mit einem schwarzen Kreuz Zum Vergrößern, auf den grünen Button mit einem Gedankenstrich zu verkleinern, oder auf die grünen Pfeile für benachbarte Karten.


METAR-TAF: